Time;durP1;ratioP1;P1;durP2;ratioP2;P2;SDS_P1;SDS_P2;PMS_P1;PMS_P2;Temp;Humidity;BMP_temperature;BMP_pressure;BME280_temperature;BME280_humidity;BME280_pressure;Samples;Min_cycle;Max_cycle;Signal;HPM_P1;HPM_P2
2022/12/16 00:01:45;;;;;;;0.10;0.10;;;-3.90;99.90;;;;;;5051125;28;20217;-80
2022/12/16 00:04:12;;;;;;;0.10;0.10;;;-3.90;99.90;;;;;;5065211;28;20579;-79
2022/12/16 00:06:38;;;;;;;0.10;0.10;;;-3.90;99.90;;;;;;5066112;28;20185;-78
2022/12/16 00:09:03;;;;;;;0.10;0.10;;;-3.90;99.90;;;;;;5052483;28;20214;-79
2022/12/16 00:11:30;;;;;;;0.10;0.10;;;-3.80;99.90;;;;;;5051917;28;20208;-78
2022/12/16 00:13:56;;;;;;;0.10;0.10;;;-3.80;99.90;;;;;;5070185;28;20716;-78
2022/12/16 00:16:22;;;;;;;0.10;0.10;;;-3.80;99.90;;;;;;5053897;28;20293;-78
2022/12/16 00:18:48;;;;;;;0.10;0.10;;;-3.70;99.90;;;;;;5067149;28;20214;-78
2022/12/16 00:21:14;;;;;;;0.20;0.20;;;-3.70;99.90;;;;;;5049957;28;20302;-78
2022/12/16 00:23:43;;;;;;;0.10;0.10;;;-3.70;99.90;;;;;;5052291;28;20193;-79
2022/12/16 00:26:10;;;;;;;0.10;0.10;;;-3.60;99.90;;;;;;5048966;28;20189;-78
2022/12/16 00:28:36;;;;;;;0.10;0.10;;;-3.60;99.90;;;;;;5066191;28;20708;-79
2022/12/16 00:31:02;;;;;;;0.10;0.10;;;-3.50;99.90;;;;;;5049073;28;20669;-79
2022/12/16 00:33:28;;;;;;;0.10;0.10;;;-3.50;99.90;;;;;;5052127;28;20199;-79
2022/12/16 00:35:54;;;;;;;0.10;0.10;;;-3.40;99.90;;;;;;5066315;28;20197;-79
2022/12/16 00:38:21;;;;;;;0.10;0.10;;;-3.40;99.90;;;;;;5065261;28;20211;-77
2022/12/16 00:40:47;;;;;;;0.10;0.10;;;-3.40;99.90;;;;;;5048624;28;20214;-78
2022/12/16 00:43:13;;;;;;;0.10;0.10;;;-3.40;99.90;;;;;;5067131;28;20242;-78
2022/12/16 00:45:38;;;;;;;0.10;0.10;;;-3.30;99.90;;;;;;5065818;28;20194;-78
2022/12/16 00:48:04;;;;;;;0.10;0.10;;;-3.10;99.90;;;;;;5065341;28;20213;-79
2022/12/16 00:50:30;;;;;;;0.10;0.10;;;-3.00;99.90;;;;;;5048069;28;21046;-79
2022/12/16 00:52:56;;;;;;;14.73;13.33;;;-2.90;99.90;;;;;;5047323;28;20199;-79
2022/12/16 00:55:22;;;;;;;0.00;0.00;;;-2.80;99.90;;;;;;5050073;28;20223;-78
2022/12/16 00:57:47;;;;;;;0.10;0.10;;;-2.60;99.90;;;;;;5050878;28;20222;-78
2022/12/16 01:00:15;;;;;;;0.10;0.10;;;-2.50;99.90;;;;;;5066617;28;20189;-77
2022/12/16 01:02:42;;;;;;;0.10;0.10;;;-2.50;99.90;;;;;;5049179;28;20211;-78
2022/12/16 01:05:11;;;;;;;0.10;0.10;;;-2.40;99.90;;;;;;5049277;28;20193;-78
2022/12/16 01:07:37;;;;;;;0.00;0.00;;;-2.30;99.90;;;;;;5066296;28;20201;-79
2022/12/16 01:10:05;;;;;;;0.10;0.10;;;-2.30;99.90;;;;;;5067226;28;20274;-79
2022/12/16 01:12:31;;;;;;;0.10;0.10;;;-2.30;99.90;;;;;;5051459;28;20188;-78
2022/12/16 01:14:56;;;;;;;0.03;0.03;;;-2.40;99.90;;;;;;5067366;28;20203;-78
2022/12/16 01:17:24;;;;;;;1.90;1.90;;;-2.40;99.90;;;;;;5064992;28;20620;-78
2022/12/16 01:19:50;;;;;;;0.10;0.10;;;-2.50;99.90;;;;;;5066629;28;20190;-79
2022/12/16 01:22:16;;;;;;;0.10;0.10;;;-2.50;99.90;;;;;;5066253;28;20207;-78
2022/12/16 01:24:43;;;;;;;0.10;0.10;;;-2.50;99.90;;;;;;5053867;28;20193;-78
2022/12/16 01:27:09;;;;;;;0.10;0.10;;;-2.60;99.90;;;;;;5053569;28;20185;-79
2022/12/16 01:29:34;;;;;;;0.00;0.00;;;-2.60;99.90;;;;;;5049468;28;20203;-79
2022/12/16 01:32:00;;;;;;;0.10;0.10;;;-2.60;99.90;;;;;;5068680;28;20561;-79
2022/12/16 01:34:26;;;;;;;0.10;0.10;;;-2.70;99.90;;;;;;5066365;28;20199;-79
2022/12/16 01:36:51;;;;;;;0.10;0.10;;;-2.80;99.90;;;;;;5052289;28;20204;-79
2022/12/16 01:39:17;;;;;;;0.10;0.10;;;-2.80;99.90;;;;;;5067660;28;20293;-78
2022/12/16 01:41:42;;;;;;;0.00;0.00;;;-2.80;99.90;;;;;;5052374;28;20209;-78
2022/12/16 01:44:20;;;;;;;0.10;0.10;;;-2.80;99.90;;;;;;5051130;28;20182;-79
2022/12/16 01:47:05;;;;;;;0.10;0.10;;;-2.90;99.90;;;;;;5051839;28;20189;-78
2022/12/16 01:49:39;;;;;;;0.47;0.47;;;-2.90;99.90;;;;;;5069609;28;20901;-78
2022/12/16 01:52:09;;;;;;;0.10;0.10;;;-3.00;99.90;;;;;;5070766;28;20673;-79
2022/12/16 01:54:59;;;;;;;0.10;0.10;;;-3.00;99.90;;;;;;5055522;28;20220;-79
2022/12/16 01:57:32;;;;;;;0.10;0.10;;;-3.10;99.90;;;;;;5068342;28;20196;-78
2022/12/16 01:59:59;;;;;;;0.03;0.03;;;-3.10;99.90;;;;;;5068717;28;20244;-78
2022/12/16 02:02:25;;;;;;;0.10;0.10;;;-3.00;99.90;;;;;;5069536;28;20203;-78
2022/12/16 02:07:36;;;;;;;0.10;0.10;;;-3.00;99.90;;;;;;5054899;28;20662;-79
2022/12/16 02:10:03;;;;;;;0.10;0.10;;;-3.00;99.90;;;;;;5051894;28;20269;-78
2022/12/16 02:12:55;;;;;;;0.10;0.10;;;-3.20;99.90;;;;;;5068868;28;20974;-79
2022/12/16 02:15:29;;;;;;;0.10;0.10;;;-3.20;99.90;;;;;;5052863;28;20185;-81
2022/12/16 02:18:07;;;;;;;0.00;0.00;;;-3.30;99.90;;;;;;5068538;28;20212;-78
2022/12/16 02:20:51;;;;;;;0.10;0.10;;;-3.20;99.90;;;;;;5053085;28;20219;-79
2022/12/16 02:23:32;;;;;;;0.00;0.00;;;-3.20;99.90;;;;;;5069982;28;20243;-78
2022/12/16 02:26:09;;;;;;;0.10;0.10;;;-3.20;99.90;;;;;;5068168;28;21097;-79
2022/12/16 02:28:57;;;;;;;0.10;0.10;;;-3.30;99.90;;;;;;5053847;28;20201;-79
2022/12/16 02:31:39;;;;;;;0.10;0.10;;;-3.40;99.90;;;;;;5072242;28;20195;-79
2022/12/16 02:34:30;;;;;;;0.10;0.10;;;-3.40;99.90;;;;;;5078118;28;20609;-78
2022/12/16 02:37:06;;;;;;;0.10;0.10;;;-3.40;99.90;;;;;;5054694;28;20176;-78
2022/12/16 02:39:44;;;;;;;0.10;0.10;;;-3.30;99.90;;;;;;5068187;28;20205;-79
2022/12/16 02:42:12;;;;;;;0.10;0.10;;;-3.30;99.90;;;;;;5053854;28;20207;-78
2022/12/16 02:44:59;;;;;;;0.10;0.10;;;-3.10;99.90;;;;;;5068497;28;20220;-78
2022/12/16 02:47:25;;;;;;;0.10;0.10;;;-3.10;99.90;;;;;;5064716;28;20182;-79
2022/12/16 02:49:53;;;;;;;0.10;0.10;;;-3.30;99.90;;;;;;5050301;28;20985;-78
2022/12/16 02:52:23;;;;;;;0.10;0.10;;;-3.20;99.90;;;;;;5053263;28;20188;-79
2022/12/16 02:54:56;;;;;;;0.00;0.00;;;-3.10;99.90;;;;;;5051588;28;20232;-78
2022/12/16 02:57:28;;;;;;;0.10;0.10;;;-3.10;99.90;;;;;;5050380;28;20214;-78
2022/12/16 03:00:04;;;;;;;0.10;0.10;;;-3.10;99.90;;;;;;5067474;28;20199;-79
2022/12/16 03:02:51;;;;;;;0.10;0.10;;;-3.20;99.90;;;;;;5068325;28;20201;-78
2022/12/16 03:05:30;;;;;;;0.10;0.10;;;-3.30;99.90;;;;;;5066737;28;20193;-79
2022/12/16 03:07:59;;;;;;;0.10;0.10;;;-3.30;99.90;;;;;;5067491;28;20205;-78
2022/12/16 03:10:30;;;;;;;0.07;0.07;;;-3.40;99.90;;;;;;5069120;28;20193;-78
2022/12/16 03:13:00;;;;;;;0.10;0.10;;;-3.40;99.90;;;;;;5052419;28;20906;-78
2022/12/16 03:15:29;;;;;;;0.10;0.10;;;-3.40;99.90;;;;;;5067988;28;20213;-78
2022/12/16 03:17:57;;;;;;;0.10;0.10;;;-3.40;99.90;;;;;;5066583;28;20216;-78
2022/12/16 03:20:37;;;;;;;0.10;0.10;;;-3.50;99.90;;;;;;5053314;28;20215;-79
2022/12/16 03:23:09;;;;;;;0.10;0.10;;;-3.50;99.90;;;;;;5053462;28;20196;-78
2022/12/16 03:25:37;;;;;;;0.10;0.10;;;-3.60;99.90;;;;;;5069252;28;20176;-78
2022/12/16 03:28:16;;;;;;;0.03;0.03;;;-3.60;99.90;;;;;;5052242;28;20204;-78
2022/12/16 03:30:50;;;;;;;0.10;0.10;;;-3.60;99.90;;;;;;5052755;28;20217;-79
2022/12/16 03:33:27;;;;;;;0.10;0.10;;;-3.60;99.90;;;;;;5051086;28;20183;-78
2022/12/16 03:36:00;;;;;;;0.10;0.10;;;-3.60;99.90;;;;;;5066366;28;20202;-78
2022/12/16 03:38:27;;;;;;;0.10;0.10;;;-3.60;99.90;;;;;;5067427;28;20322;-79
2022/12/16 03:40:55;;;;;;;0.10;0.10;;;-3.60;99.90;;;;;;5048850;28;20222;-79
2022/12/16 03:43:21;;;;;;;0.10;0.10;;;-3.50;99.90;;;;;;5052612;28;20191;-78
2022/12/16 03:45:51;;;;;;;0.10;0.10;;;-3.50;99.90;;;;;;5052580;28;21162;-79
2022/12/16 03:48:22;;;;;;;0.03;0.03;;;-3.60;99.90;;;;;;5050823;28;20197;-79
2022/12/16 03:50:47;;;;;;;0.10;0.10;;;-3.60;99.90;;;;;;5050610;28;20592;-78
2022/12/16 03:53:13;;;;;;;0.10;0.10;;;-3.60;99.90;;;;;;5065437;28;20202;-79
2022/12/16 03:55:39;;;;;;;0.10;0.10;;;-3.60;99.90;;;;;;5066968;28;20178;-78
2022/12/16 03:58:05;;;;;;;0.10;0.10;;;-3.70;99.90;;;;;;5068511;28;20215;-79
2022/12/16 04:00:30;;;;;;;0.10;0.10;;;-3.60;99.90;;;;;;5050886;28;20201;-78
2022/12/16 04:02:56;;;;;;;0.10;0.10;;;-3.60;99.90;;;;;;5067965;28;20215;-79
2022/12/16 04:05:22;;;;;;;0.07;0.07;;;-3.70;99.90;;;;;;5069502;28;20659;-78
2022/12/16 04:07:47;;;;;;;0.10;0.10;;;-3.60;99.90;;;;;;5050247;28;20803;-79
2022/12/16 04:10:13;;;;;;;0.10;0.10;;;-3.60;99.90;;;;;;5036021;28;20272;-79
2022/12/16 04:29:18;;;;;;;0.10;0.10;;;-3.50;99.90;;;;;;5050119;28;20273;-79
2022/12/16 04:31:43;;;;;;;0.10;0.10;;;-3.50;99.90;;;;;;5054737;28;20188;-79
2022/12/16 04:34:24;;;;;;;0.10;0.10;;;-3.50;99.90;;;;;;5051766;28;20181;-78
